Resultados de RENTAL PROVA 12 - 23:00
KARTODROMO INTERNACIONAL GRANJA VIANA KGV RACE TRACKS CIRCUITO - 101
Resultados de RENTAL - PROVA 12 - 23:00


Pos No. Nome Classe Comentários Voltas Pontos Total Tempo Melhor Tempo na volta. Diff Espaço Melhor Veloc. Pitstops
1 002 ALEX CHIOSINI RENTAL 11 0 15:53.937 1:18.321 11 46,654
2 010 GABRIEL SEBASTIÃO RENTAL 11 0 16:18.828 1:20.106 9 24.891 24.891 45,615
3 011 JOAO PAULO RENTAL 11 0 16:26.973 1:20.155 8 33.036 8.145 45,587
4 029 DAVID DE SOUSA RENTAL 11 0 16:48.120 1:22.977 10 54.183 21.147 44,036
5 015 MARCELO AUGUSTO RENTAL 11 0 16:55.050 1:21.829 9 1:01.113 6.930 44,654
6 022 ANDRE DE SOUZA RENTAL 11 0 16:56.444 1:23.296 1 1:02.507 1.394 43,868
7 012 ROBERTO DA SILVA RENTAL 11 0 16:56.659 1:20.041 11 1:02.722 0.215 45,652
8 027 EDNAN LINO MOURA RENTAL 11 0 17:01.180 1:18.593 11 1:07.243 4.521 46,493
9 004 DJALMA ARAUJO RENTAL 11 0 17:12.848 1:19.634 10 1:18.911 11.668 45,885
10 006 TIAGO JULIO LINS RENTAL 11 0 17:17.035 1:23.012 9 1:23.098 4.187 44,018
11 038 MARCOS AURELIO RENTAL 10 0 16:06.698 1:21.807 10 1 Volta 1 Volta 44,666
12 020 OSVALDO DE ARAUJO RENTAL 10 0 16:27.188 1:24.123 8 1 Volta 20.490 43,436
13 005 JOSE SUDARIO RENTAL 10 0 16:28.824 1:26.964 10 1 Volta 1.636 42,017
14 039 MATEUS TAKEBAYASHI RENTAL 10 0 16:40.748 1:20.069 9 1 Volta 11.924 45,636
15 016 LUCAS PEREIRA RENTAL 10 0 17:05.838 1:20.852 8 1 Volta 25.090 45,194
16 013 PEDRO LUCAS RENTAL ADV 10 0 17:18.934 1:19.888 10 1 Volta 13.096 45,739
17 040 LUCIANO FERREIRA RENTAL 9 0 15:55.640 1:25.799 6 2 Voltas 1 Volta 42,588
18 032 SAMUEL DA SILVA RENTAL 9 0 16:03.442 1:25.250 9 2 Voltas 7.802 42,862
19 025 HELIO JORDAO RENTAL 9 0 16:10.641 1:24.092 9 2 Voltas 7.199 43,452
20 008 PATRICIA ROBERTO RENTAL 9 0 16:19.697 1:33.826 6 2 Voltas 9.056 38,944
21 017 ALISON RIBEIRO SILVA RENTAL 9 0 16:20.378 1:24.081 8 2 Voltas 0.681 43,458
22 003 BRUNO LEANDRO RENTAL 9 0 16:30.666 1:25.979 8 2 Voltas 10.288 42,499
23 030 LUCAS RODRIGUES RENTAL 9 0 17:15.676 1:32.138 3 2 Voltas 45.010 39,658
24 001 WILSON BARON RENTAL 8 0 15:57.131 1:25.305 6 3 Voltas 1 Volta 42,835
25 019 GABRIEL GOMES RENTAL 8 0 16:40.381 1:29.372 6 3 Voltas 43.250 40,885
Gerada em 02/08/2019 23:45